TERMINUS DAM (TRM)

Elevation: 752' · KAWEAH R basin · Operator: US Army Corps of Engineers

Provisional data, subject to change.
Query executed Wednesday at 23:49:05   clock

Select a sensor type for a plot of data.
Note: Reservoir Flows are daily averages.

Earlier

Date RES ELE    STORAGE    RES CHG    TOC STO    ABV TOC    OUTFLOW    INFLOW    FNF    PPT INC    TEMP MN    TEMP MX    WINDLEN    EVP PAN   
 FEET   AF   AF   AF   AF   CFS   CFS   CFS   INCHES   DEG F   DEG F   MILES   INCHES  
04/26/2016 671.00 101984 -- 148750 -46766 47 1443 845 e 0.00 9 23 104 0.22
04/27/2016 671.22 102350 -- 153929 -49924 52 247 845 e 0.00 10 24 96 0.22
04/28/2016 751.34 103656 -- 159107 -55451 44 711 711 0.00 10 23 82 0.17
04/29/2016 672.66 104744 -- 164286 -- 41 682 610 0.00 13 28 122 0.28
04/30/2016 673.52 106174 -- 169539 -- 41 774 726 0.00 11 26 93 0.25
05/01/2016 674.25 107401 -- 174793 -- 42 676 676 0.00 15 32 134 0.32
05/02/2016 675.08 108803 -- 174147 -65344 43 766 766 0.00 16 34 130 0.34
05/03/2016 675.82 110061 -- 173317 -63256 53 700 700 0.00 15 32 93 0.26
05/04/2016 676.72 111600 1539 172612 -61012 58 845 845 0.00 18 29 92 0.23
05/05/2016 677.94 113700 2100 172118 -58418 51 1117 1117 0.00 12 23 70 0.15
05/06/2016 678.86 115296 1596 185300 -56239 50 861 861 0.33 13 21 71 0.12
05/07/2016 679.79 116920 1624 185300 -54088 39 864 864 0.01 13 20 127 0.13
05/08/2016 680.69 118500 1580 185300 -52012 30 833 833 0.00 11 22 89 0.13
05/09/2016 681.26 119506 1006 185198 -65692 290 811 811 0.02 16 29 90 0.28
05/10/2016 681.74 120356 850 182140 -64796 683 1126 1126 0.00 15 31 88 0.28
05/11/2016 682.48 121672 1316 182762 -63549 782 1461 1461 0.00 17 34 104 0.31
05/12/2016 683.43 123371 1699 182876 -59505 755 1629 1629 0.01 19 39 98 0.35
05/13/2016 684.81 125856 2485 183105 -57249 680 1950 1950 0.00 17 37 90 0.33
05/14/2016 686.06 128127 2271 183294 -55167 645 1804 1804 0.00 14 29 91 0.27
05/15/2016 687.26 130323 2196 183481 -53158 650 1771 1771 0.00 12 29 84 0.27
05/16/2016 688.22 132092 1769 183599 -51507 639 1546 1546 0.00 13 31 82 0.28
05/17/2016 689.11 133742 1650 179214 -49959 626 1475 1475 0.01 17 33 112 0.33
05/18/2016 690.02 135437 1695 179916 -48382 631 1504 1504 0.00 19 36 110 0.35
05/19/2016 691.00 137274 1837 180043 -42768 634 1579 1575 0.00 20 35 112 0.34
05/20/2016 692.08 139310 2036 180214 -40901 628 1669 1664 0.00 12 24 91 0.26
05/21/2016 692.69 140466 1156 180236 -39767 625 1221 1221 0.00 8 23 90 0.25
05/22/2016 692.97 140998 532 180150 -39152 614 896 896 0.00 8 25 89 0.26
05/23/2016 693.52 142046 1048 180144 -38098 554 1096 1096 0.00 9 26 76 0.25
05/24/2016 693.97 142905 859 180092 -37187 507 952 952 0.00 13 25 85 0.22
05/25/2016 -- -- -- -- -- -- -- -- -- -- -- -- --

Later | Latest

Warning! This data is preliminary and subject to revision.

Show TRM Map | Plot TRM Data | 1 Month TRM Data | Real-Time TRM Data | TRM Info